Marvel, Alabama
Current Conditions -  °F | °C
As of 2:20 AM on Monday 26 Jan 2015 (Local Time) from KEET Reporting Station
Overcast Overcast  
Wind Chill: 39°   Ceiling: 1800
Heat Index: 45°   Visibility: 10mi
Dew Point: 39°   Wind: 13mph
Humidity: 80%   Direction: 300°WNW
Pressure: 29.86"   Gusts: 18mph
Location:  33.1388°N, 86.8879°W
Report Text: KEET 260820Z AUTO 30011G16KT 10SM BKN018 BKN023 OVC032 07/04 A2986 RMK AO2 T00720039
Loading
Personal Weather Stations






























Interactive Weather Map New forecast layout! Learn more

10-Day Weather Forecast

Advertisements
Track Severe Weather on mobile